createdAt,value
2023-03-29T00:01:51.991Z,65.21
2023-03-29T00:05:23.124Z,65.13
2023-03-29T00:08:54.157Z,65.32
2023-03-29T00:12:21.424Z,65.26
2023-03-29T00:15:48.403Z,65.40
2023-03-29T00:19:15.816Z,65.32
2023-03-29T00:22:46.650Z,65.35
2023-03-29T00:26:13.917Z,65.66
2023-03-29T00:29:41.134Z,65.65
2023-03-29T00:33:08.704Z,65.53
2023-03-29T00:36:35.859Z,65.60
2023-03-29T00:40:04.897Z,65.74
2023-03-29T00:43:32.252Z,65.64
2023-03-29T00:47:00.046Z,65.95
2023-03-29T00:50:30.892Z,65.89
2023-03-29T00:54:01.534Z,65.96
2023-03-29T00:57:30.749Z,65.87
2023-03-29T01:01:05.060Z,65.95
2023-03-29T01:04:37.831Z,66.21
2023-03-29T01:08:08.131Z,66.13
2023-03-29T01:11:39.917Z,66.06
2023-03-29T01:15:11.268Z,66.08
2023-03-29T01:18:39.834Z,66.06
2023-03-29T01:22:19.293Z,65.92
2023-03-29T01:25:55.430Z,66.25
2023-03-29T01:29:29.018Z,66.20
2023-03-29T01:33:00.343Z,66.47
2023-03-29T01:36:35.060Z,66.83
2023-03-29T01:40:05.186Z,66.86
2023-03-29T01:43:37.567Z,66.72
2023-03-29T01:47:13.412Z,66.67
2023-03-29T01:50:48.872Z,66.80
2023-03-29T01:54:21.051Z,66.79
2023-03-29T01:57:54.176Z,66.86
2023-03-29T02:01:27.155Z,66.84
2023-03-29T02:04:57.739Z,67.00
2023-03-29T02:08:25.854Z,66.94
2023-03-29T02:11:54.774Z,66.85
2023-03-29T02:15:23.580Z,66.74
2023-03-29T02:18:54.267Z,66.79
2023-03-29T02:22:28.573Z,66.84
2023-03-29T02:25:57.853Z,66.64
2023-03-29T02:29:26.286Z,66.85
2023-03-29T02:32:59.575Z,66.92
2023-03-29T02:36:32.204Z,66.96
2023-03-29T02:40:00.796Z,67.00
2023-03-29T02:43:30.269Z,66.99
2023-03-29T02:47:02.274Z,66.98
2023-03-29T02:50:35.531Z,67.00
2023-03-29T02:54:07.012Z,67.07
2023-03-29T02:57:35.693Z,67.09
2023-03-29T03:01:05.322Z,67.23
2023-03-29T03:04:34.210Z,67.33
2023-03-29T03:08:02.772Z,67.45
2023-03-29T03:11:29.992Z,67.39
2023-03-29T03:14:57.464Z,67.45
2023-03-29T03:18:24.616Z,67.59
2023-03-29T03:21:52.195Z,67.71
2023-03-29T03:25:21.270Z,67.61
2023-03-29T03:28:48.995Z,67.57
2023-03-29T03:32:43.659Z,67.72
2023-03-29T03:36:37.172Z,67.83
2023-03-29T03:40:05.725Z,67.95
2023-03-29T03:43:33.903Z,68.00
2023-03-29T03:47:01.177Z,68.24
2023-03-29T03:50:28.278Z,68.23
2023-03-29T03:53:55.668Z,68.36
2023-03-29T03:57:45.775Z,68.42
2023-03-29T04:01:14.879Z,68.45
2023-03-29T04:04:46.370Z,68.54
2023-03-29T04:08:17.708Z,68.76
2023-03-29T04:12:14.404Z,68.80
2023-03-29T04:15:41.875Z,68.87
2023-03-29T04:19:09.941Z,68.97
2023-03-29T04:22:37.163Z,68.99
2023-03-29T04:26:04.539Z,69.19
2023-03-29T04:29:57.988Z,69.30
2023-03-29T04:33:37.584Z,69.41
2023-03-29T04:37:10.694Z,69.58
2023-03-29T04:40:40.378Z,69.63
2023-03-29T04:44:14.346Z,69.71
2023-03-29T04:47:42.137Z,69.68
2023-03-29T04:51:15.180Z,69.84
2023-03-29T04:54:45.833Z,69.92
2023-03-29T04:58:30.221Z,69.94
2023-03-29T05:02:00.963Z,69.98
2023-03-29T05:05:28.533Z,69.97
2023-03-29T05:08:56.426Z,70.00
2023-03-29T05:12:28.351Z,70.07
2023-03-29T05:15:57.327Z,70.10
2023-03-29T05:19:25.491Z,70.11
2023-03-29T05:22:53.311Z,70.62
2023-03-29T05:26:59.648Z,70.94
2023-03-29T05:30:27.056Z,70.95
2023-03-29T05:34:18.736Z,70.45
2023-03-29T05:37:49.923Z,69.88
2023-03-29T05:41:18.670Z,69.26
2023-03-29T05:45:13.180Z,68.45
2023-03-29T05:48:40.528Z,67.53
2023-03-29T05:52:08.030Z,66.56
2023-03-29T05:55:35.968Z,65.98
2023-03-29T05:59:03.068Z,65.20
2023-03-29T06:02:30.288Z,64.84
2023-03-29T06:06:03.887Z,64.36
2023-03-29T06:09:32.141Z,63.27
2023-03-29T06:13:02.495Z,62.24
2023-03-29T06:16:32.540Z,61.59
2023-03-29T06:20:00.143Z,61.23
2023-03-29T06:23:28.353Z,60.23
2023-03-29T06:26:56.521Z,59.36
2023-03-29T06:30:23.906Z,59.63
2023-03-29T06:33:53.302Z,58.92
2023-03-29T06:37:54.594Z,59.14
2023-03-29T06:41:30.636Z,58.25
2023-03-29T06:45:07.821Z,58.58
2023-03-29T06:48:38.638Z,58.62
2023-03-29T06:52:07.844Z,57.68
2023-03-29T06:55:36.125Z,57.86
2023-03-29T06:59:19.229Z,57.83
2023-03-29T07:03:01.626Z,57.54
2023-03-29T07:06:28.779Z,57.86
2023-03-29T07:09:57.642Z,58.55
2023-03-29T07:13:44.418Z,58.99
2023-03-29T07:17:13.872Z,59.07
2023-03-29T07:20:42.628Z,59.01
2023-03-29T07:24:10.290Z,58.98
2023-03-29T07:27:38.224Z,57.82
2023-03-29T07:31:11.121Z,57.03
2023-03-29T07:34:46.281Z,55.92
2023-03-29T07:38:20.623Z,55.47
2023-03-29T07:42:01.089Z,55.34
2023-03-29T07:45:29.836Z,54.63
2023-03-29T07:49:03.024Z,54.00
2023-03-29T07:52:30.226Z,54.00
2023-03-29T07:56:00.339Z,54.18
2023-03-29T07:59:36.194Z,53.83
2023-03-29T08:03:09.424Z,54.45
2023-03-29T08:06:36.770Z,54.16
2023-03-29T08:10:04.591Z,53.16
2023-03-29T08:13:51.506Z,52.56
2023-03-29T08:17:21.399Z,51.98
2023-03-29T08:20:51.072Z,51.30
2023-03-29T08:24:20.807Z,50.30
2023-03-29T08:27:51.484Z,49.92
2023-03-29T08:31:28.760Z,50.55
2023-03-29T08:34:56.492Z,50.76
2023-03-29T08:38:28.821Z,50.15
2023-03-29T08:42:13.303Z,50.45
2023-03-29T08:45:49.627Z,50.22
2023-03-29T08:49:20.041Z,50.00
2023-03-29T08:52:52.881Z,50.25
2023-03-29T08:56:46.804Z,50.84
2023-03-29T09:00:33.772Z,50.75
2023-03-29T09:04:09.053Z,50.88
2023-03-29T09:07:50.281Z,50.35
2023-03-29T09:11:34.026Z,50.07
2023-03-29T09:15:11.803Z,50.69
2023-03-29T09:18:52.476Z,50.01
2023-03-29T09:22:32.576Z,49.55
2023-03-29T09:26:07.069Z,49.79
2023-03-29T09:30:19.355Z,48.89
2023-03-29T09:33:59.272Z,49.44
2023-03-29T09:37:41.299Z,48.77
2023-03-29T09:41:16.202Z,49.71
2023-03-29T09:44:48.785Z,48.95
2023-03-29T09:48:21.015Z,48.90
2023-03-29T09:51:55.862Z,48.80
2023-03-29T09:55:27.642Z,49.09
2023-03-29T09:59:07.369Z,49.24
2023-03-29T10:02:35.579Z,48.80
2023-03-29T10:06:05.302Z,48.76
2023-03-29T10:09:34.244Z,46.53
2023-03-29T10:13:23.151Z,47.04
2023-03-29T10:16:57.754Z,46.54
2023-03-29T10:20:28.237Z,46.07
2023-03-29T10:24:01.360Z,45.23
2023-03-29T10:27:30.237Z,45.67
2023-03-29T10:31:01.270Z,45.97
2023-03-29T10:34:28.604Z,45.58
2023-03-29T10:37:59.441Z,45.23
2023-03-29T10:41:29.758Z,44.93
2023-03-29T10:44:59.118Z,45.08
2023-03-29T10:48:32.263Z,45.95
2023-03-29T10:51:59.386Z,46.06
2023-03-29T10:55:33.614Z,46.01
2023-03-29T10:59:18.058Z,45.27
2023-03-29T11:03:19.505Z,45.68
2023-03-29T11:06:53.537Z,45.56
2023-03-29T11:10:38.441Z,45.27
2023-03-29T11:14:10.509Z,45.78
2023-03-29T11:17:53.558Z,44.82
2023-03-29T11:21:28.606Z,43.49
2023-03-29T11:25:11.478Z,43.34
2023-03-29T11:28:46.617Z,43.65
2023-03-29T11:32:23.406Z,43.25
2023-03-29T11:36:00.217Z,42.76
2023-03-29T11:39:41.806Z,43.24
2023-03-29T11:43:14.262Z,40.77
2023-03-29T11:46:46.867Z,41.71
2023-03-29T11:50:22.808Z,41.37
2023-03-29T11:53:57.549Z,41.17
2023-03-29T11:57:27.927Z,41.59
2023-03-29T12:00:59.678Z,41.84
2023-03-29T12:04:32.376Z,43.01
2023-03-29T12:08:06.284Z,42.31
2023-03-29T12:11:39.195Z,41.98
2023-03-29T12:15:12.127Z,41.57
2023-03-29T12:18:45.333Z,41.59
2023-03-29T12:22:12.838Z,41.78
2023-03-29T12:25:54.592Z,41.20
2023-03-29T12:29:38.137Z,41.24
2023-03-29T12:33:22.496Z,42.12
2023-03-29T12:37:42.489Z,42.08
2023-03-29T12:41:29.349Z,42.72
2023-03-29T12:45:23.143Z,42.73
2023-03-29T12:48:54.396Z,42.26
2023-03-29T12:52:28.299Z,42.25
2023-03-29T12:56:11.625Z,42.83
2023-03-29T12:59:44.994Z,42.96
2023-03-29T13:03:29.781Z,42.76
2023-03-29T13:07:06.114Z,42.55
2023-03-29T13:10:41.153Z,43.80
2023-03-29T13:14:15.623Z,43.05
2023-03-29T13:17:52.375Z,43.62
2023-03-29T13:21:27.146Z,42.50
2023-03-29T13:25:19.082Z,41.85
2023-03-29T13:29:02.395Z,41.84
2023-03-29T13:32:48.585Z,42.00
2023-03-29T13:36:25.793Z,41.77
2023-03-29T13:39:55.325Z,42.00
2023-03-29T13:43:30.883Z,41.59
2023-03-29T13:47:29.556Z,41.94
2023-03-29T13:51:01.070Z,42.72
2023-03-29T13:54:33.727Z,42.86
2023-03-29T13:58:05.273Z,43.33
2023-03-29T14:01:40.399Z,43.12
2023-03-29T14:05:11.929Z,42.99
2023-03-29T14:08:43.436Z,42.80
2023-03-29T14:12:13.991Z,43.49
2023-03-29T14:15:50.718Z,43.93
2023-03-29T14:19:20.573Z,43.16
2023-03-29T14:22:48.459Z,43.26
2023-03-29T14:26:19.502Z,42.63
2023-03-29T14:29:49.412Z,43.01
2023-03-29T14:33:25.932Z,43.11
2023-03-29T14:36:54.307Z,43.65
2023-03-29T14:40:22.900Z,43.81
2023-03-29T14:43:51.655Z,43.39
2023-03-29T14:47:25.624Z,43.73
2023-03-29T14:50:54.176Z,43.45
2023-03-29T14:54:24.080Z,43.66
2023-03-29T14:57:50.020Z,44.15
2023-03-29T15:01:21.538Z,44.65
2023-03-29T15:04:58.847Z,44.90
2023-03-29T15:08:34.013Z,45.75
2023-03-29T15:12:03.212Z,45.89
2023-03-29T15:15:32.101Z,45.30
2023-03-29T15:19:02.676Z,45.90
2023-03-29T15:22:35.884Z,46.41
2023-03-29T15:26:14.360Z,46.02
2023-03-29T15:29:43.011Z,46.18
2023-03-29T15:33:24.863Z,46.17
2023-03-29T15:36:52.071Z,46.76
2023-03-29T15:40:21.770Z,46.57
2023-03-29T15:43:48.815Z,46.00
2023-03-29T15:47:16.955Z,46.32
2023-03-29T15:50:46.824Z,46.74
2023-03-29T15:54:14.259Z,47.01
2023-03-29T15:57:42.036Z,46.93
2023-03-29T16:01:19.310Z,47.34
2023-03-29T16:04:46.675Z,48.03
2023-03-29T16:08:15.354Z,48.76
2023-03-29T16:11:43.949Z,49.17
2023-03-29T16:15:28.173Z,49.90
2023-03-29T16:18:55.206Z,50.18
2023-03-29T16:22:22.967Z,50.67
2023-03-29T16:25:49.977Z,50.94
2023-03-29T16:29:17.480Z,51.39
2023-03-29T16:32:45.948Z,51.69
2023-03-29T16:36:13.961Z,51.99
2023-03-29T16:39:40.986Z,52.26
2023-03-29T16:43:08.090Z,52.58
2023-03-29T16:46:35.295Z,53.03
2023-03-29T16:50:03.254Z,53.06
2023-03-29T16:53:30.735Z,53.31
2023-03-29T16:56:58.435Z,53.66
2023-03-29T17:00:26.140Z,53.83
2023-03-29T17:03:53.391Z,54.26
2023-03-29T17:07:20.663Z,54.68
2023-03-29T17:10:48.108Z,54.94
2023-03-29T17:14:15.494Z,55.34
2023-03-29T17:17:42.717Z,55.59
2023-03-29T17:21:10.676Z,55.75
2023-03-29T17:24:37.699Z,56.04
2023-03-29T17:28:05.383Z,56.38
2023-03-29T17:31:35.182Z,56.40
2023-03-29T17:35:00.791Z,56.64
2023-03-29T17:38:29.754Z,57.09
2023-03-29T17:41:57.106Z,57.21
2023-03-29T17:45:24.141Z,57.43
2023-03-29T17:48:52.016Z,57.73
2023-03-29T17:52:19.425Z,58.02
2023-03-29T17:55:46.406Z,58.23
2023-03-29T17:59:13.522Z,58.47
2023-03-29T18:02:41.491Z,58.64
2023-03-29T18:06:09.946Z,58.77
2023-03-29T18:09:38.072Z,58.98
2023-03-29T18:13:05.619Z,59.15
2023-03-29T18:16:33.081Z,59.44
2023-03-29T18:20:01.331Z,59.58
2023-03-29T18:23:28.756Z,59.61
2023-03-29T18:26:57.890Z,59.87
2023-03-29T18:30:25.095Z,60.04
2023-03-29T18:34:00.986Z,60.32
2023-03-29T18:37:31.044Z,60.32
2023-03-29T18:40:59.420Z,60.74
2023-03-29T18:44:28.240Z,60.69
2023-03-29T18:47:56.325Z,61.01
2023-03-29T18:51:26.141Z,61.35
2023-03-29T18:54:52.076Z,61.79
2023-03-29T18:58:23.981Z,62.26
2023-03-29T19:01:53.990Z,62.35
2023-03-29T19:05:23.028Z,62.49
2023-03-29T19:08:51.461Z,63.38
2023-03-29T19:12:20.106Z,62.98
2023-03-29T19:15:49.879Z,63.25
2023-03-29T19:19:18.641Z,63.55
2023-03-29T19:22:45.825Z,63.86
2023-03-29T19:26:13.389Z,63.53
2023-03-29T19:29:41.067Z,63.98
2023-03-29T19:33:08.090Z,63.78
2023-03-29T19:36:35.711Z,64.17
2023-03-29T19:40:06.814Z,64.38
2023-03-29T19:43:34.033Z,64.40
2023-03-29T19:47:01.166Z,64.55
2023-03-29T19:50:28.357Z,64.96
2023-03-29T19:53:55.857Z,65.30
2023-03-29T19:57:23.311Z,65.41
2023-03-29T20:00:50.921Z,65.37
2023-03-29T20:04:18.490Z,65.46
2023-03-29T20:07:45.694Z,65.58
2023-03-29T20:11:13.736Z,65.65
2023-03-29T20:14:43.355Z,65.56
2023-03-29T20:18:09.049Z,65.88
2023-03-29T20:21:37.486Z,65.84
2023-03-29T20:25:04.994Z,66.36
2023-03-29T20:28:32.131Z,65.99
2023-03-29T20:31:59.442Z,66.22
2023-03-29T20:35:27.646Z,66.50
2023-03-29T20:38:56.467Z,66.18
2023-03-29T20:42:24.713Z,66.41
2023-03-29T20:45:53.904Z,66.26
2023-03-29T20:49:26.384Z,66.68
2023-03-29T20:52:55.235Z,66.45
2023-03-29T20:56:26.142Z,66.55
2023-03-29T20:59:53.566Z,66.79
2023-03-29T21:03:21.044Z,66.61
2023-03-29T21:06:49.730Z,66.61
2023-03-29T21:10:18.208Z,66.75
2023-03-29T21:13:45.311Z,66.89
2023-03-29T21:17:12.605Z,67.04
2023-03-29T21:20:40.557Z,66.93
2023-03-29T21:24:08.714Z,67.25
2023-03-29T21:27:35.702Z,67.45
2023-03-29T21:31:07.040Z,67.43
2023-03-29T21:34:34.233Z,67.37
2023-03-29T21:38:01.262Z,67.42
2023-03-29T21:41:28.264Z,67.72
2023-03-29T21:44:55.856Z,67.74
2023-03-29T21:48:22.870Z,67.61
2023-03-29T21:51:49.900Z,67.46
2023-03-29T21:55:18.103Z,68.07
2023-03-29T21:58:45.548Z,67.84
2023-03-29T22:02:12.694Z,68.00
2023-03-29T22:05:39.867Z,68.33
2023-03-29T22:09:07.061Z,68.42
2023-03-29T22:12:37.165Z,67.92
2023-03-29T22:16:05.505Z,68.02
2023-03-29T22:19:32.716Z,67.98
2023-03-29T22:22:59.862Z,67.97
2023-03-29T22:26:29.231Z,68.14
2023-03-29T22:29:56.488Z,68.11
2023-03-29T22:33:23.625Z,68.17
2023-03-29T22:36:51.800Z,68.12
2023-03-29T22:40:19.297Z,68.29
2023-03-29T22:43:46.964Z,68.66
2023-03-29T22:47:14.166Z,68.63
2023-03-29T22:50:43.000Z,68.59
2023-03-29T22:54:10.326Z,68.81
2023-03-29T22:57:37.510Z,68.92
2023-03-29T23:01:05.229Z,69.10
2023-03-29T23:04:32.926Z,68.94
2023-03-29T23:08:00.109Z,68.91
2023-03-29T23:11:27.724Z,69.02
2023-03-29T23:14:55.970Z,68.93
2023-03-29T23:18:24.092Z,69.11
2023-03-29T23:21:52.850Z,68.74
2023-03-29T23:25:19.975Z,68.96
2023-03-29T23:28:47.051Z,69.19
2023-03-29T23:32:15.661Z,68.86
2023-03-29T23:35:43.756Z,69.09
2023-03-29T23:39:10.732Z,69.26
2023-03-29T23:42:39.112Z,69.08
2023-03-29T23:46:08.185Z,69.30
2023-03-29T23:49:36.311Z,69.34
2023-03-29T23:53:03.368Z,69.15
2023-03-29T23:56:30.580Z,69.22
